Portada
METAR-TAF:

METAR-TAF

Aeroports :

Aeroport Internacional de Phu Quoc

Phu Quoc, Vietnam

latitud: 10-10-18N, longitud: 103-59-28E, altitud: 11 m

Observació

L'informe es va fer fa 24 minuts, a les 11:00 UTC
Vent 5 kt del Est
Temperatura 28°C
Humitat 74%
Pressió 1009 hPa
Visibilitat 10 km o més
sense núvols per sota de 1500 mi sense presència de cumulonimbus.

METAR: VVPQ 151100Z 09005KT CAVOK 28/23 Q1009 NOSIG

Hora: 18:24 (11:24 UTC)

Pronòstic

L'informe es va fer fa 6 hores i 24 minuts, a les 05:00 UTC
Pronòstic vàlid del 15 a les 06 UTC al 16 a les 06 UTC
Vent 7 kt del Nord-Est
Visibilitat 10 km o més
Escasses núvols a una alçada de 1700 ft

TAF: VVPQ 150500Z 1506/1606 05007KT 9999 FEW017

Observacions i pronòstics meteorològics de més de 4000 aeroports (METAR i TAF).

Les estacions disponibles són els punts grocs i vermells al mapa.

Posi el ratolí al punt desitjat per veure el nom de l'estació.

Feu clic per veure les observacions i els pronòstics meteorològics.

Per canviar el mapa: feu clic els botons verds amb una creu de color negre per apropar; al botó verd amb un guió per allunyar la imatge; o en les fletxes verdes per a mapes adjacents.


METAR-TAF: